createdAt,value
2018-04-13T00:01:37.001Z,13.86
2018-04-13T00:04:04.760Z,13.87
2018-04-13T00:06:32.480Z,13.93
2018-04-13T00:09:00.371Z,13.92
2018-04-13T00:11:28.074Z,13.86
2018-04-13T00:13:55.713Z,13.88
2018-04-13T00:16:23.553Z,13.93
2018-04-13T00:18:51.275Z,13.92
2018-04-13T00:21:18.896Z,13.83
2018-04-13T00:23:46.589Z,13.82
2018-04-13T00:26:14.299Z,13.78
2018-04-13T00:28:42.001Z,13.73
2018-04-13T00:31:09.749Z,13.70
2018-04-13T00:33:37.416Z,13.62
2018-04-13T00:36:05.072Z,13.61
2018-04-13T00:38:32.769Z,13.58
2018-04-13T00:41:00.425Z,13.55
2018-04-13T00:43:28.054Z,13.19
2018-04-13T00:45:55.915Z,13.09
2018-04-13T00:48:23.559Z,13.09
2018-04-13T00:50:51.489Z,13.07
2018-04-13T00:53:31.628Z,13.06
2018-04-13T00:55:59.362Z,13.13
2018-04-13T00:58:27.011Z,13.12
2018-04-13T01:00:54.896Z,13.05
2018-04-13T01:03:22.516Z,13.05
2018-04-13T01:05:50.241Z,13.05
2018-04-13T01:08:17.993Z,13.03
2018-04-13T01:10:46.472Z,13.02
2018-04-13T01:13:14.172Z,13.05
2018-04-13T01:15:42.089Z,13.11
2018-04-13T01:18:09.792Z,13.08
2018-04-13T01:20:37.500Z,13.10
2018-04-13T01:23:05.936Z,13.10
2018-04-13T01:25:33.621Z,13.13
2018-04-13T01:28:01.360Z,13.06
2018-04-13T01:30:29.305Z,13.06
2018-04-13T01:32:56.960Z,13.04
2018-04-13T01:35:25.758Z,13.03
2018-04-13T01:37:53.716Z,13.06
2018-04-13T01:40:22.574Z,13.07
2018-04-13T01:42:50.624Z,13.06
2018-04-13T01:45:25.104Z,13.03
2018-04-13T01:47:53.153Z,13.08
2018-04-13T01:50:20.842Z,13.06
2018-04-13T01:52:48.501Z,13.05
2018-04-13T01:55:16.302Z,12.84
2018-04-13T01:57:43.890Z,12.67
2018-04-13T02:00:11.552Z,12.53
2018-04-13T02:02:39.194Z,12.24
2018-04-13T02:05:06.833Z,11.97
2018-04-13T02:07:34.426Z,11.91
2018-04-13T02:10:02.059Z,12.00
2018-04-13T02:12:29.668Z,11.98
2018-04-13T02:14:57.361Z,11.80
2018-04-13T02:17:25.109Z,11.58
2018-04-13T02:19:52.761Z,11.56
2018-04-13T02:22:20.520Z,11.47
2018-04-13T02:24:48.174Z,11.34
2018-04-13T02:27:15.768Z,11.40
2018-04-13T02:29:43.404Z,11.60
2018-04-13T02:32:11.111Z,11.76
2018-04-13T02:34:38.841Z,11.74
2018-04-13T02:37:06.390Z,11.51
2018-04-13T02:39:34.080Z,11.54
2018-04-13T02:42:01.700Z,11.67
2018-04-13T02:44:29.308Z,11.77
2018-04-13T02:46:57.017Z,11.83
2018-04-13T02:49:24.686Z,11.87
2018-04-13T02:51:52.559Z,11.93
2018-04-13T02:54:20.163Z,11.98
2018-04-13T02:56:47.795Z,11.98
2018-04-13T02:59:15.501Z,12.01
2018-04-13T03:01:43.135Z,12.00
2018-04-13T03:04:10.785Z,11.95
2018-04-13T03:06:38.441Z,11.89
2018-04-13T03:09:06.038Z,11.90
2018-04-13T03:11:33.698Z,11.90
2018-04-13T03:14:01.312Z,11.95
2018-04-13T03:16:29.089Z,11.88
2018-04-13T03:18:56.764Z,11.82
2018-04-13T03:21:24.360Z,11.85
2018-04-13T03:23:52.025Z,11.88
2018-04-13T03:26:19.645Z,11.91
2018-04-13T03:28:47.300Z,11.85
2018-04-13T03:31:14.905Z,11.79
2018-04-13T03:33:42.567Z,11.78
2018-04-13T03:36:10.160Z,11.82
2018-04-13T03:38:37.805Z,11.78
2018-04-13T03:41:05.409Z,11.63
2018-04-13T03:43:33.033Z,11.46
2018-04-13T03:46:00.673Z,11.48
2018-04-13T03:48:28.342Z,11.49
2018-04-13T03:50:55.940Z,11.53
2018-04-13T03:53:23.574Z,11.53
2018-04-13T03:55:51.187Z,11.49
2018-04-13T03:58:18.819Z,11.38
2018-04-13T04:00:46.416Z,11.34
2018-04-13T04:03:14.072Z,11.35
2018-04-13T04:05:41.721Z,11.30
2018-04-13T04:08:09.413Z,11.42
2018-04-13T04:10:37.369Z,11.42
2018-04-13T04:13:05.126Z,11.39
2018-04-13T04:15:32.857Z,11.23
2018-04-13T04:18:00.637Z,11.16
2018-04-13T04:20:39.795Z,11.15
2018-04-13T04:23:19.064Z,11.13
2018-04-13T04:28:47.998Z,11.16
2018-04-13T04:31:15.683Z,11.14
2018-04-13T04:33:43.467Z,11.14
2018-04-13T04:36:11.110Z,11.07
2018-04-13T04:38:38.852Z,11.03
2018-04-13T04:41:06.624Z,10.96
2018-04-13T04:43:34.305Z,10.97
2018-04-13T04:46:01.935Z,10.91
2018-04-13T04:48:29.549Z,10.87
2018-04-13T04:50:57.246Z,10.89
2018-04-13T04:53:24.849Z,10.82
2018-04-13T04:55:52.580Z,10.91
2018-04-13T04:58:20.177Z,10.99
2018-04-13T05:00:47.900Z,11.06
2018-04-13T05:03:15.516Z,11.05
2018-04-13T05:05:43.161Z,11.09
2018-04-13T05:08:10.783Z,11.09
2018-04-13T05:10:38.439Z,11.09
2018-04-13T05:13:06.241Z,11.13
2018-04-13T05:15:33.904Z,11.10
2018-04-13T05:18:01.547Z,11.06
2018-04-13T05:20:29.149Z,11.09
2018-04-13T05:22:56.810Z,11.05
2018-04-13T05:25:24.548Z,11.04
2018-04-13T05:27:52.192Z,11.04
2018-04-13T05:30:19.826Z,11.02
2018-04-13T05:32:47.474Z,10.82
2018-04-13T05:35:15.094Z,10.58
2018-04-13T05:37:42.714Z,10.40
2018-04-13T05:40:10.348Z,10.27
2018-04-13T05:42:38.011Z,10.19
2018-04-13T05:45:05.737Z,10.23
2018-04-13T05:47:33.394Z,10.39
2018-04-13T05:50:01.041Z,10.40
2018-04-13T05:52:28.865Z,10.51
2018-04-13T05:54:56.608Z,10.69
2018-04-13T05:57:24.348Z,10.84
2018-04-13T05:59:53.308Z,10.96
2018-04-13T06:02:21.099Z,11.07
2018-04-13T06:04:48.755Z,11.20
2018-04-13T06:07:17.579Z,11.33
2018-04-13T06:09:45.688Z,11.46
2018-04-13T06:12:13.621Z,11.53
2018-04-13T06:14:41.516Z,11.54
2018-04-13T06:17:10.204Z,11.65
2018-04-13T06:19:38.467Z,11.73
2018-04-13T06:22:06.787Z,11.82
2018-04-13T06:24:39.486Z,11.86
2018-04-13T06:27:26.486Z,11.89
2018-04-13T06:33:08.011Z,12.01
2018-04-13T06:35:35.769Z,12.01
2018-04-13T06:38:04.777Z,11.98
2018-04-13T06:40:32.584Z,11.98
2018-04-13T06:43:00.367Z,12.04
2018-04-13T06:48:04.434Z,12.07
2018-04-13T06:50:34.144Z,12.10
2018-04-13T06:53:01.791Z,12.16
2018-04-13T06:55:29.667Z,12.18
2018-04-13T06:57:57.586Z,12.23
2018-04-13T07:00:25.503Z,12.25
2018-04-13T07:02:57.017Z,12.28
2018-04-13T07:05:24.700Z,12.31
2018-04-13T07:07:52.335Z,12.27
2018-04-13T07:10:20.074Z,12.38
2018-04-13T07:12:47.870Z,12.51
2018-04-13T07:15:15.554Z,12.57
2018-04-13T07:17:43.263Z,12.60
2018-04-13T07:20:10.948Z,12.66
2018-04-13T07:22:38.548Z,12.71
2018-04-13T07:25:06.198Z,12.63
2018-04-13T07:27:33.810Z,12.61
2018-04-13T07:30:01.469Z,12.65
2018-04-13T07:32:29.076Z,12.53
2018-04-13T07:34:56.729Z,12.52
2018-04-13T07:37:24.364Z,12.56
2018-04-13T07:39:52.312Z,12.65
2018-04-13T07:42:19.748Z,12.74
2018-04-13T07:44:47.384Z,12.75
2018-04-13T07:47:15.063Z,12.77
2018-04-13T07:49:42.738Z,12.85
2018-04-13T07:52:10.430Z,12.94
2018-04-13T07:54:38.121Z,13.05
2018-04-13T07:57:05.895Z,13.00
2018-04-13T07:59:33.623Z,12.97
2018-04-13T08:02:01.398Z,13.02
2018-04-13T08:04:29.095Z,13.15
2018-04-13T08:06:56.891Z,13.21
2018-04-13T08:09:24.608Z,13.28
2018-04-13T08:11:52.305Z,13.30
2018-04-13T08:14:19.896Z,13.36
2018-04-13T08:16:47.662Z,13.48
2018-04-13T08:19:15.405Z,13.58
2018-04-13T08:21:43.064Z,13.67
2018-04-13T08:24:10.766Z,13.67
2018-04-13T08:26:38.597Z,13.71
2018-04-13T08:29:06.238Z,13.69
2018-04-13T08:31:34.737Z,13.70
2018-04-13T08:34:02.572Z,13.69
2018-04-13T08:36:30.172Z,13.67
2018-04-13T08:38:58.755Z,13.68
2018-04-13T08:41:26.685Z,13.56
2018-04-13T08:43:54.389Z,13.57
2018-04-13T08:46:22.017Z,13.66
2018-04-13T08:48:49.782Z,13.61
2018-04-13T08:51:17.400Z,13.63
2018-04-13T08:53:45.115Z,13.72
2018-04-13T08:56:12.733Z,13.77
2018-04-13T08:58:40.526Z,13.71
2018-04-13T09:01:08.428Z,13.79
2018-04-13T09:03:36.083Z,13.86
2018-04-13T09:06:03.687Z,13.96
2018-04-13T09:08:31.350Z,14.05
2018-04-13T09:10:58.971Z,14.07
2018-04-13T09:13:27.346Z,14.10
2018-04-13T09:15:55.006Z,14.16
2018-04-13T09:18:22.677Z,14.25
2018-04-13T09:20:50.351Z,14.30
2018-04-13T09:23:18.347Z,14.39
2018-04-13T09:25:45.956Z,14.38
2018-04-13T09:28:13.738Z,14.48
2018-04-13T09:30:41.384Z,14.64
2018-04-13T09:33:09.004Z,14.74
2018-04-13T09:35:36.655Z,14.83
2018-04-13T09:38:04.291Z,14.90
2018-04-13T09:40:32.041Z,14.92
2018-04-13T09:42:59.871Z,14.88
2018-04-13T09:45:27.560Z,14.93
2018-04-13T09:47:55.192Z,15.03
2018-04-13T09:50:22.874Z,15.10
2018-04-13T09:52:50.546Z,15.17
2018-04-13T09:55:18.212Z,15.14
2018-04-13T09:57:45.821Z,15.25
2018-04-13T10:24:48.181Z,15.00
2018-04-13T10:30:09.001Z,15.09
2018-04-13T10:32:41.027Z,15.09
2018-04-13T10:35:14.862Z,15.10
2018-04-13T10:37:48.891Z,15.16
2018-04-13T10:43:16.993Z,15.14
2018-04-13T10:45:59.688Z,15.09
2018-04-13T10:48:35.208Z,15.12
2018-04-13T10:51:21.067Z,15.13
2018-04-13T10:53:57.468Z,15.17
2018-04-13T10:56:28.093Z,15.16
2018-04-13T10:59:01.921Z,15.18
2018-04-13T11:01:33.575Z,15.22
2018-04-13T11:04:05.618Z,15.22
2018-04-13T11:06:40.652Z,15.28
2018-04-13T11:09:12.878Z,15.23
2018-04-13T11:11:47.858Z,15.25
2018-04-13T11:17:07.902Z,15.39
2018-04-13T11:19:53.662Z,15.47
2018-04-13T11:25:45.115Z,15.54
2018-04-13T11:28:16.154Z,15.55
2018-04-13T11:30:53.837Z,15.51
2018-04-13T11:36:26.508Z,15.51
2018-04-13T11:39:13.826Z,15.50
2018-04-13T11:41:55.566Z,15.54
2018-04-13T11:44:26.588Z,15.60
2018-04-13T11:47:01.079Z,15.60
2018-04-13T11:52:23.372Z,15.66
2018-04-13T11:57:35.542Z,15.72
2018-04-13T12:00:22.615Z,15.74
2018-04-13T12:03:05.013Z,15.86
2018-04-13T12:05:42.609Z,15.93
2018-04-13T12:08:17.147Z,15.92
2018-04-13T12:13:52.998Z,16.21
2018-04-13T12:16:29.671Z,16.50
2018-04-13T12:19:06.236Z,16.69
2018-04-13T12:21:55.824Z,16.73
2018-04-13T12:24:27.579Z,16.69
2018-04-13T12:26:56.353Z,16.73
2018-04-13T12:29:24.757Z,16.75
2018-04-13T12:32:08.509Z,16.77
2018-04-13T12:34:41.773Z,16.66
2018-04-13T12:37:18.239Z,16.62
2018-04-13T12:39:48.530Z,16.59
2018-04-13T12:42:18.801Z,16.65
2018-04-13T12:44:47.580Z,16.72
2018-04-13T12:47:18.118Z,16.68
2018-04-13T12:49:56.614Z,16.50
2018-04-13T12:52:28.282Z,16.38
2018-04-13T12:58:09.805Z,16.31
2018-04-13T13:00:46.358Z,16.33
2018-04-13T13:06:12.105Z,16.49
2018-04-13T13:12:03.341Z,16.77
2018-04-13T13:14:38.304Z,16.80
2018-04-13T13:17:06.214Z,16.82
2018-04-13T13:19:48.104Z,16.83
2018-04-13T13:22:21.148Z,16.73
2018-04-13T13:27:30.046Z,16.53
2018-04-13T13:35:52.588Z,16.56
2018-04-13T13:41:14.276Z,16.44
2018-04-13T13:43:47.041Z,16.37
2018-04-13T13:46:14.690Z,16.39
2018-04-13T13:48:42.535Z,16.36
2018-04-13T13:51:10.184Z,16.34
2018-04-13T13:53:37.901Z,16.35
2018-04-13T13:56:05.593Z,16.42
2018-04-13T13:58:33.314Z,16.46
2018-04-13T14:01:00.909Z,16.51
2018-04-13T14:03:28.600Z,16.52
2018-04-13T14:05:56.261Z,16.49
2018-04-13T14:08:24.025Z,16.50
2018-04-13T14:10:51.702Z,16.48
2018-04-13T14:13:19.386Z,16.41
2018-04-13T14:15:47.053Z,16.44
2018-04-13T14:18:14.804Z,16.46
2018-04-13T14:20:42.500Z,16.54
2018-04-13T14:23:10.146Z,16.64
2018-04-13T14:25:37.853Z,16.68
2018-04-13T14:28:05.570Z,16.73
2018-04-13T14:30:33.289Z,16.83
2018-04-13T14:33:01.009Z,16.78
2018-04-13T14:35:28.670Z,16.75
2018-04-13T14:37:56.306Z,16.69
2018-04-13T14:40:23.938Z,16.64
2018-04-13T14:42:51.598Z,16.59
2018-04-13T14:45:19.288Z,16.54
2018-04-13T14:47:46.946Z,16.59
2018-04-13T14:50:14.635Z,16.53
2018-04-13T14:52:42.293Z,16.52
2018-04-13T14:55:09.985Z,16.53
2018-04-13T14:57:37.773Z,16.55
2018-04-13T15:00:05.485Z,16.47
2018-04-13T15:02:33.149Z,16.42
2018-04-13T15:05:00.865Z,16.42
2018-04-13T15:07:28.630Z,16.40
2018-04-13T15:09:56.245Z,16.33
2018-04-13T15:12:23.953Z,16.29
2018-04-13T15:14:51.581Z,16.24
2018-04-13T15:17:19.330Z,16.19
2018-04-13T15:19:46.958Z,16.16
2018-04-13T15:22:14.635Z,16.13
2018-04-13T15:24:42.233Z,16.10
2018-04-13T15:27:10.061Z,16.11
2018-04-13T15:29:37.706Z,16.14
2018-04-13T15:32:05.427Z,16.18
2018-04-13T15:34:33.104Z,16.22
2018-04-13T15:37:00.957Z,16.22
2018-04-13T15:39:28.752Z,16.21
2018-04-13T15:41:56.374Z,16.23
2018-04-13T15:44:24.123Z,16.27
2018-04-13T15:46:51.825Z,16.25
2018-04-13T15:49:19.498Z,16.21
2018-04-13T15:51:47.116Z,16.24
2018-04-13T15:54:14.922Z,16.23
2018-04-13T15:56:42.678Z,16.22
2018-04-13T15:59:10.373Z,16.24
2018-04-13T16:01:38.157Z,16.26
2018-04-13T16:04:05.726Z,16.28
2018-04-13T16:06:33.331Z,16.29
2018-04-13T16:09:00.935Z,16.31
2018-04-13T16:11:28.645Z,16.31
2018-04-13T16:13:56.230Z,16.28
2018-04-13T16:16:23.885Z,16.31
2018-04-13T16:18:51.462Z,16.33
2018-04-13T16:21:19.132Z,16.27
2018-04-13T16:23:46.754Z,16.23
2018-04-13T16:26:14.405Z,16.24
2018-04-13T16:28:42.019Z,16.22
2018-04-13T16:31:10.456Z,16.19
2018-04-13T16:33:38.063Z,16.19
2018-04-13T16:36:05.727Z,16.19
2018-04-13T16:38:33.517Z,16.16
2018-04-13T16:41:01.161Z,16.16
2018-04-13T16:43:28.760Z,16.19
2018-04-13T16:45:56.386Z,16.16
2018-04-13T16:48:24.036Z,16.17
2018-04-13T16:50:51.660Z,16.16
2018-04-13T16:53:19.296Z,16.14
2018-04-13T16:55:46.922Z,16.17
2018-04-13T16:58:14.562Z,16.17
2018-04-13T17:00:42.162Z,16.16
2018-04-13T17:03:09.812Z,16.14
2018-04-13T17:05:37.566Z,16.10
2018-04-13T17:08:05.203Z,16.08
2018-04-13T17:10:32.828Z,16.07
2018-04-13T17:13:00.500Z,16.04
2018-04-13T17:15:28.110Z,16.06
2018-04-13T17:17:55.779Z,16.10
2018-04-13T17:20:23.372Z,16.07
2018-04-13T17:22:50.982Z,16.05
2018-04-13T17:25:18.631Z,16.05
2018-04-13T17:27:46.224Z,16.05
2018-04-13T17:30:13.869Z,16.02
2018-04-13T17:32:41.523Z,16.00
2018-04-13T17:35:09.186Z,16.02
2018-04-13T17:37:36.804Z,16.00
2018-04-13T17:40:04.469Z,15.98
2018-04-13T17:42:32.083Z,16.00
2018-04-13T17:44:59.746Z,15.98
2018-04-13T17:47:27.449Z,15.99
2018-04-13T17:49:55.102Z,15.96
2018-04-13T17:52:22.716Z,15.96
2018-04-13T17:54:50.369Z,15.95
2018-04-13T17:57:18.002Z,15.94
2018-04-13T17:59:45.679Z,15.93
2018-04-13T18:02:13.292Z,15.93
2018-04-13T18:04:40.983Z,15.91
2018-04-13T18:07:08.596Z,15.92
2018-04-13T18:09:36.286Z,15.84
2018-04-13T18:12:03.937Z,15.76
2018-04-13T18:14:31.614Z,15.68
2018-04-13T18:16:59.242Z,15.64
2018-04-13T18:19:26.874Z,15.59
2018-04-13T18:21:54.514Z,15.54
2018-04-13T18:24:22.139Z,15.55
2018-04-13T18:26:49.810Z,15.55
2018-04-13T18:29:17.411Z,15.58
2018-04-13T18:31:45.082Z,15.58
2018-04-13T18:34:12.773Z,15.58
2018-04-13T18:36:40.513Z,15.55
2018-04-13T18:39:08.170Z,15.52
2018-04-13T18:41:35.795Z,15.47
2018-04-13T18:44:03.406Z,15.43
2018-04-13T18:46:31.114Z,15.39
2018-04-13T18:48:58.746Z,15.34
2018-04-13T18:51:26.407Z,15.34
2018-04-13T18:53:54.059Z,15.33
2018-04-13T18:56:21.740Z,15.32
2018-04-13T18:58:49.399Z,15.30
2018-04-13T19:01:17.050Z,15.27
2018-04-13T19:03:44.676Z,15.28
2018-04-13T19:06:12.524Z,15.27
2018-04-13T19:08:40.267Z,15.29
2018-04-13T19:11:07.922Z,15.31
2018-04-13T19:13:35.598Z,15.30
2018-04-13T19:16:03.241Z,15.31
2018-04-13T19:18:30.921Z,15.32
2018-04-13T19:20:58.689Z,15.29
2018-04-13T19:23:26.334Z,15.29
2018-04-13T19:25:54.036Z,15.28
2018-04-13T19:28:21.800Z,15.25
2018-04-13T19:30:49.523Z,15.26
2018-04-13T19:33:17.287Z,15.26
2018-04-13T19:35:44.978Z,15.24
2018-04-13T19:38:12.736Z,15.23
2018-04-13T19:40:40.452Z,15.22
2018-04-13T19:43:08.159Z,15.22
2018-04-13T19:45:35.799Z,15.22
2018-04-13T19:48:03.503Z,15.23
2018-04-13T19:50:31.127Z,15.21
2018-04-13T19:52:58.971Z,15.18
2018-04-13T19:55:26.624Z,15.16
2018-04-13T19:57:54.380Z,15.17
2018-04-13T20:00:22.082Z,15.21
2018-04-13T20:02:49.845Z,15.21
2018-04-13T20:05:17.629Z,15.23
2018-04-13T20:07:45.325Z,15.25
2018-04-13T20:10:13.046Z,15.26
2018-04-13T20:12:40.696Z,15.25
2018-04-13T20:15:08.352Z,15.25
2018-04-13T20:17:36.502Z,15.26
2018-04-13T20:20:04.251Z,15.28
2018-04-13T20:22:31.988Z,15.27
2018-04-13T20:24:59.645Z,15.26
2018-04-13T20:27:27.412Z,15.28
2018-04-13T20:29:55.134Z,15.27
2018-04-13T20:32:22.931Z,15.28
2018-04-13T20:34:50.609Z,15.27
2018-04-13T20:37:18.357Z,15.25
2018-04-13T20:39:46.074Z,15.25
2018-04-13T20:42:13.789Z,15.24
2018-04-13T20:44:41.666Z,15.27
2018-04-13T20:47:09.304Z,15.29
2018-04-13T20:49:37.037Z,15.30
2018-04-13T20:52:04.800Z,15.29
2018-04-13T20:54:32.450Z,15.28
2018-04-13T20:57:00.128Z,15.26
2018-04-13T20:59:27.850Z,15.25
2018-04-13T21:01:55.549Z,15.23
2018-04-13T21:04:23.169Z,15.19
2018-04-13T21:06:51.174Z,15.12
2018-04-13T21:09:18.780Z,15.07
2018-04-13T21:11:46.474Z,15.00
2018-04-13T21:14:14.163Z,14.95
2018-04-13T21:16:41.880Z,14.96
2018-04-13T21:19:09.572Z,15.00
2018-04-13T21:21:38.229Z,15.06
2018-04-13T21:24:06.116Z,15.06
2018-04-13T21:26:33.799Z,15.03
2018-04-13T21:29:01.714Z,15.02
2018-04-13T21:31:29.533Z,15.03
2018-04-13T21:33:57.288Z,15.02
2018-04-13T21:36:25.151Z,15.02
2018-04-13T21:38:52.819Z,15.02
2018-04-13T21:41:20.469Z,14.98
2018-04-13T21:43:49.226Z,14.96
2018-04-13T21:46:16.902Z,14.86
2018-04-13T21:48:44.597Z,14.79
2018-04-13T21:51:12.215Z,14.79
2018-04-13T21:53:40.046Z,14.81
2018-04-13T21:56:07.848Z,14.83
2018-04-13T21:58:35.735Z,14.84
2018-04-13T22:01:03.378Z,14.78
2018-04-13T22:03:31.097Z,14.67
2018-04-13T22:05:58.746Z,14.62
2018-04-13T22:08:26.459Z,14.58
2018-04-13T22:10:54.105Z,14.49
2018-04-13T22:13:27.614Z,14.38
2018-04-13T22:15:55.241Z,14.28
2018-04-13T22:18:22.886Z,14.28
2018-04-13T22:20:50.526Z,14.35
2018-04-13T22:23:18.265Z,14.43
2018-04-13T22:25:45.919Z,14.48
2018-04-13T22:28:13.559Z,14.52
2018-04-13T22:30:41.220Z,14.52
2018-04-13T22:33:08.889Z,14.53
2018-04-13T22:35:36.550Z,14.54
2018-04-13T22:38:04.172Z,14.54
2018-04-13T22:40:31.898Z,14.55
2018-04-13T22:42:59.542Z,14.55
2018-04-13T22:45:27.172Z,14.55
2018-04-13T22:47:54.823Z,14.57
2018-04-13T22:50:22.537Z,14.55
2018-04-13T22:52:50.169Z,14.53
2018-04-13T22:55:17.829Z,14.53
2018-04-13T22:57:45.529Z,14.50
2018-04-13T23:00:13.380Z,14.45
2018-04-13T23:02:41.016Z,14.38
2018-04-13T23:05:08.644Z,14.40
2018-04-13T23:07:36.306Z,14.43
2018-04-13T23:10:04.072Z,14.41
2018-04-13T23:12:31.757Z,14.40
2018-04-13T23:14:59.388Z,14.31
2018-04-13T23:17:27.054Z,14.26
2018-04-13T23:19:54.801Z,14.24
2018-04-13T23:22:33.953Z,14.15
2018-04-13T23:25:01.638Z,14.12
2018-04-13T23:27:29.314Z,14.12
2018-04-13T23:29:56.908Z,14.11
2018-04-13T23:32:24.601Z,14.15
2018-04-13T23:34:52.200Z,14.17
2018-04-13T23:37:19.848Z,14.20
2018-04-13T23:39:47.449Z,14.19
2018-04-13T23:42:15.100Z,14.13
2018-04-13T23:44:42.713Z,14.09
2018-04-13T23:47:10.328Z,14.13
2018-04-13T23:49:37.959Z,14.13
2018-04-13T23:52:05.583Z,14.13
2018-04-13T23:54:33.275Z,14.01
2018-04-13T23:57:00.893Z,13.92
2018-04-13T23:59:28.560Z,13.89
